Time;durP1;ratioP1;P1;durP2;ratioP2;P2;SDS_P1;SDS_P2;PMS_P1;PMS_P2;Temp;Humidity;BMP_temperature;BMP_pressure;BME280_temperature;BME280_humidity;BME280_pressure;Samples;Min_cycle;Max_cycle;Signal;HPM_P1;HPM_P2
2020/12/20 00:01:46;;;;;;;47.17;24.53;;;;;;;1.53;100.00;98674.06;5071378;28;20262;-71
2020/12/20 00:04:13;;;;;;;45.83;25.50;;;;;;;1.55;100.00;98678.13;5075941;28;20287;-69
2020/12/20 00:06:41;;;;;;;43.03;24.63;;;;;;;1.78;100.00;98672.25;5077379;28;20209;-68
2020/12/20 00:09:09;;;;;;;54.37;24.37;;;;;;;1.51;100.00;98677.03;5074845;28;20781;-68
2020/12/20 00:11:41;;;;;;;43.67;24.47;;;;;;;1.63;100.00;98684.94;5075960;28;20209;-68
2020/12/20 00:14:26;;;;;;;48.03;24.70;;;;;;;1.68;100.00;98685.00;5074893;28;20292;-68
2020/12/20 00:17:13;;;;;;;48.33;25.00;;;;;;;1.39;100.00;98679.16;5070298;28;20620;-68
2020/12/20 00:19:39;;;;;;;65.67;26.87;;;;;;;1.36;100.00;98689.72;5064724;28;20207;-68
2020/12/20 00:22:11;;;;;;;55.40;26.60;;;;;;;1.44;100.00;98681.09;5071390;28;20237;-68
2020/12/20 00:24:38;;;;;;;65.53;26.80;;;;;;;1.52;100.00;98688.72;5064454;28;20221;-67
2020/12/20 00:27:06;;;;;;;70.20;26.67;;;;;;;1.31;100.00;98685.09;5071908;28;20209;-68
2020/12/20 00:29:33;;;;;;;61.87;27.63;;;;;;;1.51;100.00;98676.22;5071929;28;20231;-67
2020/12/20 00:32:05;;;;;;;70.33;26.83;;;;;;;1.34;100.00;98676.41;5070898;28;20205;-66
2020/12/20 00:34:31;;;;;;;56.47;28.60;;;;;;;1.37;100.00;98665.00;5071357;28;20287;-66
2020/12/20 00:36:57;;;;;;;61.27;26.70;;;;;;;1.46;100.00;98663.41;5072082;28;20201;-68
2020/12/20 00:39:26;;;;;;;68.97;29.00;;;;;;;1.41;100.00;98666.09;5071795;28;20266;-68
2020/12/20 00:41:56;;;;;;;55.50;24.97;;;;;;;1.18;100.00;98658.41;5071237;28;20212;-68
2020/12/20 00:44:26;;;;;;;43.67;25.43;;;;;;;1.32;100.00;98664.97;5071336;28;20240;-67
2020/12/20 00:46:54;;;;;;;47.57;26.80;;;;;;;1.49;100.00;98662.06;5072192;28;20209;-69
2020/12/20 00:49:25;;;;;;;63.47;26.33;;;;;;;1.16;100.00;98671.44;5074239;28;20314;-67
2020/12/20 00:52:01;;;;;;;52.80;28.50;;;;;;;1.42;100.00;98662.31;5074530;28;20287;-68
2020/12/20 00:54:27;;;;;;;57.47;28.23;;;;;;;1.25;100.00;98667.13;5070813;28;20292;-68
2020/12/20 00:56:54;;;;;;;49.10;25.23;;;;;;;1.34;100.00;98662.81;5071455;28;20296;-68
2020/12/20 01:34:02;;;;;;;52.83;27.13;;;;;;;1.56;100.00;98678.94;5171639;27;20556;-68
2020/12/20 01:36:29;;;;;;;74.27;28.03;;;;;;;1.30;100.00;98680.72;5170370;27;20977;-69
2020/12/20 01:38:55;;;;;;;70.37;28.63;;;;;;;1.36;100.00;98667.97;5170826;27;20206;-69
2020/12/20 01:41:22;;;;;;;60.50;27.97;;;;;;;1.47;100.00;98659.63;5168899;27;20237;-69
2020/12/20 01:43:53;;;;;;;53.97;27.93;;;;;;;1.45;100.00;98660.94;5169387;27;20234;-69
2020/12/20 01:46:21;;;;;;;50.00;27.70;;;;;;;1.76;100.00;98654.53;5170291;27;20224;-70
2020/12/20 01:48:49;;;;;;;49.87;27.27;;;;;;;1.78;100.00;98649.66;5170863;27;20197;-70
2020/12/20 01:51:15;;;;;;;62.53;29.17;;;;;;;1.63;100.00;98653.13;5169836;27;20284;-70
2020/12/20 01:53:42;;;;;;;89.80;30.43;;;;;;;1.46;100.00;98651.72;5170052;27;20217;-69
2020/12/20 01:56:08;;;;;;;68.50;29.80;;;;;;;1.40;100.00;98648.16;5170299;27;20309;-69
2020/12/20 01:58:38;;;;;;;51.63;29.03;;;;;;;1.59;100.00;98646.59;5170502;27;20284;-69
2020/12/20 02:01:08;;;;;;;56.10;28.83;;;;;;;1.74;100.00;98648.53;5170016;27;20288;-69
2020/12/20 02:03:37;;;;;;;63.40;28.47;;;;;;;1.49;100.00;98646.56;5151151;27;20194;-70
2020/12/20 02:06:05;;;;;;;59.03;28.63;;;;;;;1.71;100.00;98628.16;5170528;27;20222;-70
2020/12/20 02:08:32;;;;;;;55.63;28.17;;;;;;;1.55;100.00;98626.44;5170131;27;20762;-70
2020/12/20 02:11:07;;;;;;;52.87;27.33;;;;;;;1.45;100.00;98629.16;5169743;27;20206;-69
2020/12/20 02:13:33;;;;;;;53.53;25.47;;;;;;;1.35;100.00;98629.09;5169431;27;20221;-70
2020/12/20 02:16:02;;;;;;;74.67;26.80;;;;;;;1.56;100.00;98625.38;5176804;27;20228;-68
2020/12/20 02:18:28;;;;;;;44.70;26.80;;;;;;;1.49;100.00;98629.44;5181235;27;20217;-70
2020/12/20 02:20:54;;;;;;;49.20;26.10;;;;;;;1.73;100.00;98634.13;5170243;27;20229;-68
2020/12/20 02:23:21;;;;;;;58.90;25.57;;;;;;;1.44;100.00;98635.66;5168683;27;20665;-69
2020/12/20 02:25:51;;;;;;;50.30;28.13;;;;;;;1.58;100.00;98634.09;5169860;27;20309;-69
2020/12/20 02:28:18;;;;;;;56.63;26.50;;;;;;;1.66;100.00;98632.75;5169816;27;20293;-68
2020/12/20 02:30:45;;;;;;;46.97;26.00;;;;;;;1.41;100.00;98636.19;5172577;27;20726;-68
2020/12/20 02:33:11;;;;;;;44.80;25.27;;;;;;;1.57;100.00;98627.00;5173018;27;20317;-69
2020/12/20 02:35:37;;;;;;;54.73;26.00;;;;;;;1.60;100.00;98622.94;5174112;27;20233;-69
2020/12/20 02:38:03;;;;;;;55.90;24.67;;;;;;;1.39;100.00;98635.63;5156283;27;20241;-67
2020/12/20 02:40:33;;;;;;;50.57;26.17;;;;;;;1.32;100.00;98629.63;5174116;27;20593;-68
2020/12/20 02:42:59;;;;;;;54.73;24.60;;;;;;;1.29;100.00;98623.91;5169057;27;20198;-68
2020/12/20 02:45:25;;;;;;;55.63;25.70;;;;;;;1.37;100.00;98632.38;5154537;27;20276;-68
2020/12/20 02:47:51;;;;;;;59.80;25.97;;;;;;;1.42;100.00;98640.56;5155789;27;20289;-68
2020/12/20 02:50:32;;;;;;;55.23;26.23;;;;;;;1.45;100.00;98636.47;5155102;27;20262;-68
2020/12/20 02:53:01;;;;;;;56.40;26.80;;;;;;;1.59;100.00;98633.00;5154714;27;20214;-68
2020/12/20 02:55:27;;;;;;;52.37;27.60;;;;;;;1.64;100.00;98638.44;5153787;27;20258;-68
2020/12/20 02:57:56;;;;;;;68.40;27.07;;;;;;;1.45;100.00;98656.34;5155606;27;20202;-68
2020/12/20 03:00:22;;;;;;;84.03;26.83;;;;;;;1.50;100.00;98652.81;5158676;27;20234;-69
2020/12/20 03:02:48;;;;;;;72.83;27.37;;;;;;;1.45;100.00;98656.34;5169508;27;20266;-68
2020/12/20 03:05:14;;;;;;;56.77;27.27;;;;;;;1.39;100.00;98653.84;5161023;27;20219;-70
2020/12/20 03:07:40;;;;;;;52.73;27.53;;;;;;;1.48;100.00;98650.34;5156518;27;20206;-70
2020/12/20 03:10:06;;;;;;;48.17;26.97;;;;;;;1.57;100.00;98640.59;5153214;27;20887;-70
2020/12/20 03:12:32;;;;;;;46.23;26.63;;;;;;;1.50;100.00;98648.19;5154674;27;20218;-70
2020/12/20 03:14:59;;;;;;;55.63;26.77;;;;;;;1.48;100.00;98650.34;5156172;27;20236;-70
2020/12/20 03:17:27;;;;;;;77.80;25.23;;;;;;;1.37;100.00;98643.25;5154828;27;20229;-70
2020/12/20 03:19:53;;;;;;;56.67;26.97;;;;;;;1.59;100.00;98640.31;5154973;27;20599;-70
2020/12/20 03:22:20;;;;;;;77.57;27.70;;;;;;;1.57;100.00;98637.88;5153962;27;20227;-70
2020/12/20 03:24:46;;;;;;;49.67;27.73;;;;;;;1.63;100.00;98646.88;5154724;27;20275;-70
2020/12/20 03:27:12;;;;;;;48.27;27.70;;;;;;;1.80;100.00;98642.03;5158308;27;20202;-68
2020/12/20 03:29:38;;;;;;;50.30;27.03;;;;;;;1.50;100.00;98642.75;5163568;27;20202;-68
2020/12/20 03:32:04;;;;;;;56.07;26.97;;;;;;;1.39;100.00;98643.81;5158560;27;20254;-70
2020/12/20 03:34:30;;;;;;;49.80;26.60;;;;;;;1.47;100.00;98648.75;5155025;27;20258;-68
2020/12/20 03:36:56;;;;;;;53.40;26.93;;;;;;;1.45;100.00;98640.03;5155098;27;20209;-68
2020/12/20 03:39:22;;;;;;;53.43;27.80;;;;;;;1.70;100.00;98637.38;5154374;27;20733;-68
2020/12/20 03:41:49;;;;;;;49.87;27.77;;;;;;;1.66;100.00;98624.59;5153894;27;20245;-69
2020/12/20 03:44:14;;;;;;;61.57;27.93;;;;;;;1.72;100.00;98626.22;5154178;27;20211;-68
2020/12/20 03:46:41;;;;;;;50.87;28.57;;;;;;;1.69;100.00;98619.44;5154323;27;20724;-68
2020/12/20 03:49:07;;;;;;;73.50;29.27;;;;;;;1.66;100.00;98624.59;5154648;27;20289;-67
2020/12/20 03:51:33;;;;;;;68.20;27.97;;;;;;;1.67;100.00;98621.59;5153693;27;20225;-69
2020/12/20 03:53:59;;;;;;;55.23;27.00;;;;;;;1.59;100.00;98619.41;5153952;27;20621;-69
2020/12/20 03:56:25;;;;;;;60.47;27.30;;;;;;;1.57;100.00;98613.41;5152652;27;20271;-69
2020/12/20 03:58:53;;;;;;;78.97;26.73;;;;;;;1.63;100.00;98623.22;5154292;27;20206;-69
2020/12/20 04:01:24;;;;;;;68.20;26.93;;;;;;;1.74;100.00;98626.78;5153404;27;20286;-70
2020/12/20 04:03:51;;;;;;;90.53;26.00;;;;;;;1.54;100.00;98621.28;5153782;27;20203;-69
2020/12/20 04:06:17;;;;;;;66.10;25.87;;;;;;;1.51;100.00;98625.38;5153809;27;20253;-69
2020/12/20 04:08:43;;;;;;;53.33;25.50;;;;;;;1.61;100.00;98622.66;5152745;27;20206;-69
2020/12/20 04:11:10;;;;;;;51.83;26.27;;;;;;;1.82;100.00;98613.50;5141099;27;20685;-68
2020/12/20 04:13:36;;;;;;;50.93;26.30;;;;;;;1.68;100.00;98606.13;5153648;27;20250;-68
2020/12/20 04:16:10;;;;;;;66.07;27.13;;;;;;;1.62;100.00;98613.44;5135018;27;20784;-68
2020/12/20 04:18:37;;;;;;;71.87;24.70;;;;;;;1.38;100.00;98612.28;5148099;27;20848;-70
2020/12/20 04:21:04;;;;;;;75.57;27.03;;;;;;;1.36;100.00;98625.31;5149070;27;20314;-68
2020/12/20 04:23:30;;;;;;;66.37;27.30;;;;;;;1.62;100.00;98629.75;5149162;27;20293;-69
2020/12/20 04:25:56;;;;;;;66.47;27.43;;;;;;;1.51;100.00;98619.09;5149305;27;20242;-67
2020/12/20 04:28:22;;;;;;;65.83;25.20;;;;;;;1.45;100.00;98615.56;5149355;27;20254;-68
2020/12/20 04:30:51;;;;;;;51.43;26.77;;;;;;;1.54;100.00;98616.66;5169803;27;20259;-69
2020/12/20 04:33:18;;;;;;;70.63;24.70;;;;;;;1.31;100.00;98609.00;5157368;27;20793;-69
2020/12/20 04:35:45;;;;;;;69.17;25.40;;;;;;;1.36;100.00;98608.19;5164702;27;20695;-68
2020/12/20 04:38:11;;;;;;;87.07;26.90;;;;;;;1.34;100.00;98616.59;5152752;27;20663;-68
2020/12/20 04:40:37;;;;;;;55.87;25.67;;;;;;;1.42;100.00;98613.38;5153585;27;20259;-67
2020/12/20 04:43:09;;;;;;;63.77;27.03;;;;;;;1.40;100.00;98610.09;5152538;27;20232;-68
2020/12/20 04:45:36;;;;;;;75.80;28.13;;;;;;;1.41;100.00;98625.31;5153443;27;20222;-69
2020/12/20 04:48:07;;;;;;;66.43;27.83;;;;;;;1.66;100.00;98611.78;5153233;27;20230;-68
2020/12/20 04:50:34;;;;;;;75.20;26.27;;;;;;;1.46;100.00;98609.00;5144823;27;20318;-67
2020/12/20 04:53:00;;;;;;;66.70;27.47;;;;;;;1.49;100.00;98618.56;5135074;27;20218;-67
2020/12/20 04:55:27;;;;;;;53.20;26.73;;;;;;;1.97;100.00;98616.22;5158475;27;20287;-69
2020/12/20 04:57:54;;;;;;;72.17;27.23;;;;;;;1.43;100.00;98606.84;5158735;27;20672;-69
2020/12/20 05:00:21;;;;;;;55.70;26.37;;;;;;;1.63;100.00;98606.06;5152994;27;20226;-69
2020/12/20 05:02:48;;;;;;;68.60;27.20;;;;;;;1.63;100.00;98606.06;5152211;27;20202;-69
2020/12/20 05:05:14;;;;;;;48.27;27.47;;;;;;;1.74;100.00;98608.56;5152954;27;20700;-68
2020/12/20 05:07:43;;;;;;;56.33;26.90;;;;;;;1.56;100.00;98606.34;5152774;27;20711;-70
2020/12/20 05:10:09;;;;;;;54.67;26.70;;;;;;;1.57;100.00;98618.03;5149975;27;20293;-69
2020/12/20 05:12:36;;;;;;;48.40;25.37;;;;;;;1.57;100.00;98613.41;5151886;27;20698;-68
2020/12/20 05:15:23;;;;;;;54.90;27.50;;;;;;;1.56;100.00;98614.50;5152406;27;20218;-67
2020/12/20 05:18:06;;;;;;;52.73;26.60;;;;;;;1.58;100.00;98619.66;5157032;27;20254;-67
2020/12/20 05:20:46;;;;;;;69.50;26.13;;;;;;;1.58;100.00;98619.66;5172031;27;20202;-69
2020/12/20 05:23:13;;;;;;;55.97;25.93;;;;;;;1.57;100.00;98616.13;5139927;27;20208;-70
2020/12/20 05:25:41;;;;;;;47.03;25.23;;;;;;;1.73;100.00;98615.06;5154102;27;20228;-69
2020/12/20 05:28:11;;;;;;;49.57;26.00;;;;;;;1.51;100.00;98606.34;5155982;27;20230;-68
2020/12/20 05:30:45;;;;;;;47.07;24.70;;;;;;;1.75;100.00;98604.75;5146060;27;20722;-68
2020/12/20 05:33:26;;;;;;;57.87;26.10;;;;;;;1.66;100.00;98603.63;5133739;27;20222;-68
2020/12/20 05:36:06;;;;;;;71.33;27.43;;;;;;;1.60;100.00;98604.72;5151529;27;20308;-68
2020/12/20 05:38:35;;;;;;;60.53;26.23;;;;;;;1.67;100.00;98604.47;5153303;27;20327;-68
2020/12/20 05:41:02;;;;;;;56.13;26.27;;;;;;;1.60;100.00;98607.44;5153057;27;20209;-68
2020/12/20 05:43:28;;;;;;;61.43;25.17;;;;;;;1.47;100.00;98609.84;5153551;27;20276;-68
2020/12/20 05:45:58;;;;;;;50.97;26.00;;;;;;;1.58;100.00;98616.94;5156632;27;20237;-68
2020/12/20 05:48:26;;;;;;;68.03;25.93;;;;;;;1.60;100.00;98612.88;5154507;27;20206;-67
2020/12/20 05:50:52;;;;;;;53.07;25.67;;;;;;;1.69;100.00;98614.00;5154098;27;20310;-70
2020/12/20 05:53:29;;;;;;;60.23;25.13;;;;;;;1.56;100.00;98609.06;5152585;27;20226;-68
2020/12/20 05:55:56;;;;;;;54.80;25.20;;;;;;;1.61;100.00;98611.78;5154413;27;20254;-67
2020/12/20 05:58:23;;;;;;;70.27;25.63;;;;;;;1.52;100.00;98609.84;5154266;27;20718;-68
2020/12/20 06:00:49;;;;;;;48.63;25.07;;;;;;;1.67;100.00;98610.72;5138686;27;20390;-67
2020/12/20 06:03:16;;;;;;;61.93;24.77;;;;;;;1.53;100.00;98615.03;5153169;27;20194;-68
2020/12/20 06:05:46;;;;;;;45.53;25.97;;;;;;;1.63;100.00;98617.78;5175147;27;20234;-68
2020/12/20 06:08:17;;;;;;;53.37;25.60;;;;;;;1.73;100.00;98620.50;5158089;27;20728;-69
2020/12/20 06:10:50;;;;;;;56.43;27.50;;;;;;;1.84;100.00;98619.44;5154260;27;20679;-70
2020/12/20 06:13:23;;;;;;;69.30;25.57;;;;;;;1.65;100.00;98617.50;5154072;27;20223;-69
2020/12/20 06:15:59;;;;;;;65.63;26.70;;;;;;;1.43;100.00;98615.00;5151996;27;20233;-68
2020/12/20 06:18:29;;;;;;;59.50;25.43;;;;;;;1.52;100.00;98613.41;5152360;27;20213;-68
2020/12/20 06:21:00;;;;;;;56.00;26.13;;;;;;;1.70;100.00;98610.19;5156426;27;20198;-68
2020/12/20 06:23:31;;;;;;;53.73;26.43;;;;;;;1.52;100.00;98609.84;5155375;27;20223;-67
2020/12/20 06:25:59;;;;;;;58.37;24.97;;;;;;;1.60;100.00;98621.03;5156197;27;20222;-68
2020/12/20 06:28:30;;;;;;;54.43;25.13;;;;;;;1.36;100.00;98622.59;5155465;27;20755;-69
2020/12/20 06:30:58;;;;;;;59.90;25.53;;;;;;;1.31;100.00;98616.31;5155869;27;20298;-70
2020/12/20 06:33:24;;;;;;;60.10;26.63;;;;;;;1.37;100.00;98624.22;5154008;27;20308;-69
2020/12/20 06:35:51;;;;;;;72.67;27.33;;;;;;;1.51;100.00;98624.53;5156236;27;20591;-70
2020/12/20 06:38:24;;;;;;;58.13;26.83;;;;;;;1.48;100.00;98616.94;5157253;27;20277;-70
2020/12/20 06:40:53;;;;;;;62.60;28.00;;;;;;;1.83;100.00;98617.81;5162425;27;20234;-70
2020/12/20 06:43:29;;;;;;;71.80;25.63;;;;;;;1.42;100.00;98618.00;5155061;27;20229;-70
2020/12/20 06:45:56;;;;;;;54.83;26.23;;;;;;;1.46;100.00;98614.47;5155729;27;20232;-70
2020/12/20 06:48:39;;;;;;;72.03;26.20;;;;;;;1.52;100.00;98618.00;5155201;27;20633;-68
2020/12/20 06:51:07;;;;;;;53.97;27.73;;;;;;;1.60;100.00;98612.06;5155185;27;20209;-71
2020/12/20 06:53:52;;;;;;;72.23;26.90;;;;;;;1.36;100.00;98625.31;5136486;27;20330;-70
2020/12/20 06:56:23;;;;;;;51.63;25.33;;;;;;;1.46;100.00;98613.66;5155241;27;20291;-69
2020/12/20 06:58:50;;;;;;;64.17;24.57;;;;;;;1.30;100.00;98622.81;5155322;27;20733;-69
2020/12/20 07:01:36;;;;;;;58.83;26.97;;;;;;;1.43;100.00;98625.88;5155153;27;20313;-69
2020/12/20 07:04:05;;;;;;;67.03;25.97;;;;;;;1.48;100.00;98627.81;5156121;27;20202;-68
2020/12/20 07:06:31;;;;;;;44.10;24.77;;;;;;;1.54;100.00;98637.59;5146756;27;20222;-68
2020/12/20 07:09:00;;;;;;;48.57;25.10;;;;;;;1.50;100.00;98641.94;5156066;27;20214;-67
2020/12/20 07:11:27;;;;;;;46.00;24.47;;;;;;;1.37;100.00;98629.66;5156124;27;20203;-68
2020/12/20 07:13:55;;;;;;;47.13;25.23;;;;;;;1.63;100.00;98642.25;5156194;27;20801;-68
2020/12/20 07:16:43;;;;;;;48.80;26.97;;;;;;;1.49;100.00;98645.75;5156616;27;20280;-68
2020/12/20 07:19:12;;;;;;;47.47;25.30;;;;;;;1.57;100.00;98642.53;5156482;27;20213;-68
2020/12/20 07:21:44;;;;;;;48.13;26.87;;;;;;;1.51;100.00;98633.53;5156618;27;20233;-68
2020/12/20 07:24:19;;;;;;;45.37;25.33;;;;;;;2.01;100.00;98632.81;5154629;27;20237;-69
2020/12/20 07:26:51;;;;;;;49.63;25.80;;;;;;;1.80;100.00;98634.69;5155514;27;20206;-68
2020/12/20 07:29:18;;;;;;;57.23;25.43;;;;;;;1.59;100.00;98629.44;5155446;27;20238;-68
2020/12/20 07:31:45;;;;;;;46.30;25.00;;;;;;;1.45;100.00;98639.19;5126393;27;20706;-68
2020/12/20 07:34:12;;;;;;;48.43;24.90;;;;;;;1.63;100.00;98639.53;5147907;27;20314;-68
2020/12/20 07:36:41;;;;;;;50.87;25.30;;;;;;;1.58;100.00;98634.09;5165981;27;20214;-68
2020/12/20 07:39:08;;;;;;;45.70;25.57;;;;;;;1.52;100.00;98627.00;5165373;27;20271;-68
2020/12/20 07:41:35;;;;;;;46.07;24.97;;;;;;;1.71;100.00;98620.00;5152478;27;20659;-69
2020/12/20 07:44:09;;;;;;;43.87;24.60;;;;;;;1.78;100.00;98634.16;5150891;27;20206;-67
2020/12/20 07:46:38;;;;;;;48.10;24.67;;;;;;;1.36;100.00;98638.91;5152388;27;20281;-67
2020/12/20 07:49:10;;;;;;;44.33;23.10;;;;;;;1.43;100.00;98634.03;5153835;27;20289;-68
2020/12/20 07:51:41;;;;;;;46.10;23.80;;;;;;;1.40;100.00;98631.84;5145566;27;20206;-68
2020/12/20 07:54:09;;;;;;;40.53;22.13;;;;;;;1.49;100.00;98638.41;5153829;27;20222;-70
2020/12/20 07:56:41;;;;;;;45.30;24.37;;;;;;;1.32;100.00;98640.50;5128126;27;20706;-69
2020/12/20 07:59:12;;;;;;;46.33;24.33;;;;;;;1.54;100.00;98630.25;5154136;27;20240;-69
2020/12/20 08:01:40;;;;;;;41.60;22.37;;;;;;;1.47;100.00;98626.97;5146432;27;20214;-68
2020/12/20 08:04:26;;;;;;;38.90;21.17;;;;;;;1.32;100.00;98621.47;5152476;27;20226;-67
2020/12/20 08:06:53;;;;;;;37.63;22.23;;;;;;;1.58;100.00;98625.94;5156472;27;20237;-69
2020/12/20 08:09:23;;;;;;;37.23;21.40;;;;;;;1.59;100.00;98618.56;5156573;27;20202;-70
2020/12/20 08:11:50;;;;;;;39.40;22.60;;;;;;;1.48;100.00;98615.00;5155561;27;20217;-69
2020/12/20 08:14:20;;;;;;;47.47;23.87;;;;;;;1.75;100.00;98602.03;5161561;27;20314;-68
2020/12/20 08:16:52;;;;;;;47.63;23.27;;;;;;;1.55;100.00;98612.84;5159252;27;20236;-68
2020/12/20 08:19:26;;;;;;;40.40;22.10;;;;;;;1.57;100.00;98629.72;5155421;27;20198;-68
2020/12/20 08:22:05;;;;;;;40.33;22.97;;;;;;;1.58;100.00;98617.78;5168231;27;20231;-68
2020/12/20 08:24:37;;;;;;;46.90;23.67;;;;;;;1.54;100.00;98624.00;5165205;27;20218;-69
2020/12/20 08:27:19;;;;;;;50.03;23.73;;;;;;;1.41;100.00;98619.88;5156022;27;20212;-68
2020/12/20 08:29:48;;;;;;;47.53;24.37;;;;;;;1.63;100.00;98619.69;5156614;27;20229;-69
2020/12/20 08:32:17;;;;;;;46.70;24.37;;;;;;;1.66;100.00;98619.94;5155504;27;20210;-69
2020/12/20 08:34:44;;;;;;;43.77;24.37;;;;;;;1.69;100.00;98622.16;5155578;27;20706;-68
2020/12/20 08:37:14;;;;;;;47.87;24.43;;;;;;;1.66;100.00;98619.16;5154031;27;20211;-68
2020/12/20 08:39:41;;;;;;;48.50;25.60;;;;;;;1.90;100.00;98617.56;5154180;27;20206;-69
2020/12/20 08:42:10;;;;;;;43.27;23.63;;;;;;;1.94;100.00;98619.47;5155199;27;20206;-67
2020/12/20 08:44:38;;;;;;;46.47;25.13;;;;;;;1.65;100.00;98614.78;5154706;27;20718;-69
2020/12/20 08:47:08;;;;;;;51.07;25.53;;;;;;;1.57;100.00;98618.84;5155662;27;20297;-68
2020/12/20 08:49:35;;;;;;;49.63;24.73;;;;;;;1.71;100.00;98614.56;5137740;27;20231;-68
2020/12/20 08:52:16;;;;;;;46.50;24.47;;;;;;;1.80;100.00;98625.72;5154839;27;20309;-69
2020/12/20 08:54:49;;;;;;;45.10;24.13;;;;;;;1.69;100.00;98614.00;5154268;27;20257;-68
2020/12/20 08:57:15;;;;;;;42.33;23.43;;;;;;;2.10;100.00;98600.44;5153254;27;20271;-69
2020/12/20 08:59:46;;;;;;;41.50;23.33;;;;;;;1.51;100.00;98600.91;5152367;27;20203;-69
2020/12/20 09:02:24;;;;;;;39.73;22.17;;;;;;;1.75;100.00;98596.56;5152888;27;20230;-69
2020/12/20 09:05:01;;;;;;;43.23;22.80;;;;;;;1.44;100.00;98600.31;5153330;27;20246;-70
2020/12/20 09:07:36;;;;;;;39.73;22.60;;;;;;;1.60;100.00;98601.19;5171448;27;20316;-69
2020/12/20 09:10:08;;;;;;;40.77;22.23;;;;;;;1.86;100.00;98595.50;5162563;27;20674;-69
2020/12/20 09:12:34;;;;;;;42.87;23.80;;;;;;;1.94;100.00;98589.53;5143737;27;20289;-70
2020/12/20 09:15:11;;;;;;;43.10;23.63;;;;;;;1.86;100.00;98602.88;5152194;27;20226;-69
2020/12/20 09:17:48;;;;;;;37.93;22.30;;;;;;;1.65;100.00;98612.06;5153130;27;20234;-70
2020/12/20 09:20:18;;;;;;;37.70;21.87;;;;;;;1.52;100.00;98645.19;5152483;27;20201;-69
2020/12/20 09:23:02;;;;;;;38.40;22.77;;;;;;;1.57;100.00;98651.47;5152310;27;20216;-69
2020/12/20 09:25:30;;;;;;;37.90;21.57;;;;;;;1.68;100.00;98639.53;5152203;27;20321;-69
2020/12/20 09:28:09;;;;;;;39.33;22.50;;;;;;;1.97;100.00;98627.09;5134338;27;20202;-69
2020/12/20 09:30:40;;;;;;;39.73;22.40;;;;;;;1.63;100.00;98636.81;5152525;27;20293;-69
2020/12/20 09:33:38;;;;;;;35.73;22.10;;;;;;;1.71;100.00;98647.19;5151804;27;20243;-69
2020/12/20 09:36:20;;;;;;;31.77;20.53;;;;;;;1.73;100.00;98647.72;5107625;27;20809;-71
2020/12/20 09:38:51;;;;;;;34.10;20.77;;;;;;;1.83;100.00;98639.59;5146269;27;20289;-69
2020/12/20 09:41:28;;;;;;;34.80;21.07;;;;;;;1.68;100.00;98650.44;5152378;27;20288;-67
2020/12/20 09:43:55;;;;;;;34.77;20.67;;;;;;;1.61;100.00;98636.25;5152157;27;20201;-67
2020/12/20 09:46:30;;;;;;;37.17;21.40;;;;;;;1.69;100.00;98629.50;5152414;27;20226;-68
2020/12/20 09:49:00;;;;;;;36.90;22.07;;;;;;;1.76;100.00;98641.75;5137582;27;20338;-68
2020/12/20 09:51:26;;;;;;;36.57;21.60;;;;;;;1.64;100.00;98638.44;5152628;27;20198;-67
2020/12/20 09:53:53;;;;;;;38.67;21.53;;;;;;;1.71;100.00;98635.50;5152682;27;20222;-67
2020/12/20 09:56:23;;;;;;;40.73;22.60;;;;;;;1.87;100.00;98635.25;5156480;27;20250;-67
2020/12/20 09:58:49;;;;;;;47.70;22.30;;;;;;;1.77;100.00;98627.06;5157358;27;20305;-67
2020/12/20 10:01:17;;;;;;;36.30;21.20;;;;;;;1.71;100.00;98628.16;5159456;27;20233;-67
2020/12/20 10:03:43;;;;;;;33.87;21.90;;;;;;;1.74;100.00;98632.22;5159583;27;20289;-67
2020/12/20 10:06:10;;;;;;;37.73;21.63;;;;;;;1.80;100.00;98617.56;5162735;27;20250;-69
2020/12/20 10:08:36;;;;;;;34.87;21.23;;;;;;;1.60;100.00;98634.66;5157415;27;20198;-68
2020/12/20 10:11:04;;;;;;;37.73;22.10;;;;;;;1.73;100.00;98630.59;5150778;27;20209;-70
2020/12/20 10:13:32;;;;;;;36.77;22.03;;;;;;;1.92;100.00;98640.69;5145901;27;20330;-69
2020/12/20 10:15:58;;;;;;;40.90;22.93;;;;;;;1.78;100.00;98639.59;5140839;27;20275;-68
2020/12/20 10:18:25;;;;;;;40.53;22.53;;;;;;;2.01;100.00;98638.25;5138304;27;20202;-70
2020/12/20 10:20:53;;;;;;;36.83;23.00;;;;;;;1.81;100.00;98644.47;5158706;27;20206;-67
2020/12/20 10:23:19;;;;;;;37.10;22.93;;;;;;;1.88;100.00;98641.53;5156216;27;20542;-69
2020/12/20 10:25:45;;;;;;;36.17;21.70;;;;;;;1.86;100.00;98647.22;5155543;27;20346;-70
2020/12/20 10:28:11;;;;;;;41.77;21.50;;;;;;;1.77;100.00;98646.09;5154716;27;20288;-67
2020/12/20 10:30:39;;;;;;;37.17;22.03;;;;;;;2.03;100.00;98650.53;5156794;27;20223;-67
2020/12/20 10:33:05;;;;;;;40.37;22.77;;;;;;;2.16;100.00;98640.19;5155843;27;20257;-68
2020/12/20 10:35:31;;;;;;;37.67;22.77;;;;;;;2.34;100.00;98629.56;5139725;27;20305;-68
2020/12/20 10:37:57;;;;;;;36.77;23.03;;;;;;;2.19;100.00;98635.00;5171620;27;20224;-67
2020/12/20 10:40:26;;;;;;;39.17;23.07;;;;;;;2.30;100.00;98635.84;5143922;27;20199;-66
2020/12/20 10:42:53;;;;;;;39.20;23.30;;;;;;;2.21;100.00;98632.03;5150070;27;20195;-69
2020/12/20 10:45:20;;;;;;;35.43;22.73;;;;;;;2.39;100.00;98637.75;5148382;27;20227;-70
2020/12/20 10:47:46;;;;;;;36.00;21.87;;;;;;;2.55;100.00;98633.13;5147832;27;20289;-69
2020/12/20 10:50:13;;;;;;;36.93;23.03;;;;;;;1.93;100.00;98620.56;5132191;27;20202;-69
2020/12/20 10:52:40;;;;;;;36.37;22.33;;;;;;;1.95;100.00;98623.03;5150152;27;20255;-69
2020/12/20 10:55:09;;;;;;;40.00;23.90;;;;;;;1.88;100.00;98623.28;5149566;27;20245;-72
2020/12/20 10:57:42;;;;;;;37.37;23.70;;;;;;;1.96;100.00;98625.47;5151459;27;20230;-70
2020/12/20 11:00:08;;;;;;;36.90;21.97;;;;;;;2.16;100.00;98619.22;5152636;27;20286;-70
2020/12/20 11:02:34;;;;;;;37.70;23.73;;;;;;;1.96;100.00;98630.09;5154856;27;20275;-69
2020/12/20 11:05:00;;;;;;;39.17;22.77;;;;;;;2.08;100.00;98627.13;5154374;27;20226;-70
2020/12/20 11:07:26;;;;;;;39.13;25.00;;;;;;;2.24;100.00;98623.31;5143807;27;20659;-70
2020/12/20 11:09:52;;;;;;;36.40;22.70;;;;;;;2.16;100.00;98616.50;5155582;27;20205;-70
2020/12/20 11:12:21;;;;;;;32.73;21.07;;;;;;;2.05;100.00;98612.97;5156297;27;20206;-69
2020/12/20 11:14:47;;;;;;;37.70;23.10;;;;;;;2.28;100.00;98606.16;5155174;27;20226;-69
2020/12/20 11:17:14;;;;;;;36.87;22.97;;;;;;;2.61;100.00;98610.25;5155306;27;20671;-68
2020/12/20 11:19:40;;;;;;;35.30;22.53;;;;;;;2.01;100.00;98606.44;5116652;27;20833;-68
2020/12/20 11:22:06;;;;;;;36.70;22.30;;;;;;;2.32;100.00;98607.25;5160855;27;20202;-69
2020/12/20 11:24:35;;;;;;;42.00;25.07;;;;;;;2.16;100.00;98602.06;5155285;27;21420;-68
2020/12/20 11:27:01;;;;;;;35.47;23.77;;;;;;;2.02;100.00;98605.34;5148245;27;20301;-69
2020/12/20 11:29:27;;;;;;;41.47;25.30;;;;;;;2.21;100.00;98610.25;5151111;27;20210;-68
2020/12/20 11:31:55;;;;;;;38.33;24.10;;;;;;;2.16;100.00;98607.50;5150673;27;20263;-68
2020/12/20 11:34:22;;;;;;;37.17;23.57;;;;;;;2.26;100.00;98607.53;5150718;27;20260;-71
2020/12/20 11:36:49;;;;;;;39.47;24.07;;;;;;;2.62;100.00;98607.25;5133537;27;20206;-70
2020/12/20 11:39:16;;;;;;;41.53;25.60;;;;;;;2.67;100.00;98609.13;5150367;27;20230;-70
2020/12/20 11:41:43;;;;;;;37.23;22.77;;;;;;;2.12;100.00;98592.84;5150578;27;20206;-69
2020/12/20 11:44:09;;;;;;;34.90;22.83;;;;;;;2.25;100.00;98600.44;5146666;27;20198;-70
2020/12/20 11:46:36;;;;;;;34.10;22.00;;;;;;;2.12;100.00;98595.56;5155848;27;20254;-71
2020/12/20 11:49:03;;;;;;;35.67;21.90;;;;;;;2.39;100.00;98594.16;5156614;27;20712;-72
2020/12/20 11:51:30;;;;;;;37.40;22.80;;;;;;;2.04;100.00;98594.97;5142152;27;20202;-71
2020/12/20 11:53:58;;;;;;;36.13;23.17;;;;;;;2.03;100.00;98604.25;5151044;27;20222;-71
2020/12/20 11:56:24;;;;;;;36.13;22.13;;;;;;;2.38;100.00;98595.28;5150564;27;20257;-71
2020/12/20 11:58:50;;;;;;;35.37;23.00;;;;;;;2.64;100.00;98587.88;5151374;27;20944;-73
2020/12/20 12:01:20;;;;;;;34.53;23.03;;;;;;;2.25;100.00;98584.09;5149871;27;20205;-71